createdAt,value
2019-03-11T00:00:59.359Z,1.33
2019-03-11T00:03:30.290Z,0.90
2019-03-11T00:06:01.104Z,1.30
2019-03-11T00:08:31.944Z,1.20
2019-03-11T00:11:02.695Z,1.13
2019-03-11T00:13:34.517Z,2.23
2019-03-11T00:16:05.336Z,1.50
2019-03-11T00:18:36.150Z,0.87
2019-03-11T00:21:06.890Z,1.20
2019-03-11T00:23:37.706Z,1.17
2019-03-11T00:26:08.523Z,1.70
2019-03-11T00:28:39.285Z,1.20
2019-03-11T00:31:11.141Z,1.37
2019-03-11T00:33:41.970Z,1.30
2019-03-11T00:36:12.760Z,1.10
2019-03-11T00:38:45.258Z,1.30
2019-03-11T00:41:16.098Z,1.17
2019-03-11T00:43:47.096Z,1.60
2019-03-11T00:46:17.886Z,1.77
2019-03-11T00:48:48.681Z,1.43
2019-03-11T00:51:19.443Z,0.93
2019-03-11T00:53:50.247Z,1.40
2019-03-11T00:56:21.206Z,1.60
2019-03-11T00:58:52.066Z,1.23
2019-03-11T01:01:22.936Z,1.27
2019-03-11T01:03:53.727Z,1.30
2019-03-11T01:06:24.575Z,1.30
2019-03-11T01:08:55.335Z,1.10
2019-03-11T01:11:26.096Z,1.57
2019-03-11T01:13:56.971Z,1.23
2019-03-11T01:16:27.751Z,1.53
2019-03-11T01:18:58.563Z,1.40
2019-03-11T01:21:29.340Z,1.30
2019-03-11T01:24:01.756Z,1.40
2019-03-11T01:26:32.508Z,1.90
2019-03-11T01:29:03.235Z,1.10
2019-03-11T01:31:35.611Z,1.27
2019-03-11T01:34:06.348Z,1.53
2019-03-11T01:36:37.106Z,1.00
2019-03-11T01:39:08.231Z,1.13
2019-03-11T01:41:38.963Z,1.73
2019-03-11T01:44:09.749Z,1.43
2019-03-11T01:46:40.531Z,1.00
2019-03-11T01:49:11.273Z,1.23
2019-03-11T02:10:01.354Z,1.37
2019-03-11T02:12:32.204Z,1.23
2019-03-11T02:15:04.893Z,1.13
2019-03-11T02:17:35.764Z,1.17
2019-03-11T02:20:08.088Z,1.00
2019-03-11T02:22:38.908Z,1.10
2019-03-11T02:25:09.690Z,1.90
2019-03-11T02:27:40.412Z,1.30
2019-03-11T02:30:12.359Z,1.63
2019-03-11T02:32:43.172Z,1.57
2019-03-11T02:35:16.235Z,1.43
2019-03-11T02:37:47.011Z,1.30
2019-03-11T02:40:17.918Z,1.47
2019-03-11T02:42:48.620Z,1.20
2019-03-11T02:45:19.427Z,1.30
2019-03-11T02:47:51.582Z,1.60
2019-03-11T02:50:22.467Z,1.57
2019-03-11T02:52:53.304Z,1.30
2019-03-11T02:55:24.079Z,1.70
2019-03-11T02:57:54.891Z,1.40
2019-03-11T03:00:25.747Z,1.50
2019-03-11T03:03:06.083Z,1.67
2019-03-11T03:05:45.768Z,1.10
2019-03-11T03:08:16.562Z,1.93
2019-03-11T03:10:47.407Z,1.40
2019-03-11T03:13:18.232Z,1.50
2019-03-11T03:15:48.994Z,1.20
2019-03-11T03:18:19.811Z,1.10
2019-03-11T03:20:50.607Z,1.70
2019-03-11T03:23:21.459Z,2.07
2019-03-11T03:25:52.250Z,1.43
2019-03-11T03:28:23.082Z,1.30
2019-03-11T03:30:53.872Z,1.27
2019-03-11T03:33:24.683Z,1.50
2019-03-11T03:35:55.483Z,1.57
2019-03-11T03:38:30.857Z,1.97
2019-03-11T03:40:58.900Z,1.40
2019-03-11T03:43:29.701Z,1.80
2019-03-11T03:46:00.493Z,1.77
2019-03-11T03:48:31.281Z,2.00
2019-03-11T03:51:03.211Z,1.63
2019-03-11T03:53:34.064Z,1.90
2019-03-11T03:56:04.896Z,1.70
2019-03-11T03:58:35.680Z,1.30
2019-03-11T04:01:06.462Z,1.77
2019-03-11T04:03:37.298Z,1.40
2019-03-11T04:06:09.747Z,1.97
2019-03-11T04:08:40.561Z,1.20
2019-03-11T04:11:11.327Z,1.73
2019-03-11T04:13:43.306Z,1.90
2019-03-11T04:16:14.070Z,1.90
2019-03-11T04:18:55.419Z,1.60
2019-03-11T04:21:26.224Z,1.63
2019-03-11T04:24:30.035Z,2.07
2019-03-11T04:27:05.461Z,1.70
2019-03-11T04:29:36.265Z,2.20
2019-03-11T04:32:07.603Z,1.87
2019-03-11T04:34:38.427Z,2.63
2019-03-11T04:37:10.255Z,1.53
2019-03-11T04:39:41.147Z,1.70
2019-03-11T04:42:11.898Z,1.43
2019-03-11T04:44:42.691Z,1.30
2019-03-11T04:47:13.570Z,1.70
2019-03-11T04:49:44.385Z,1.37
2019-03-11T04:52:15.182Z,1.80
2019-03-11T04:54:46.012Z,1.67
2019-03-11T04:57:16.810Z,1.70
2019-03-11T04:59:47.615Z,1.83
2019-03-11T05:02:18.555Z,1.60
2019-03-11T05:04:49.360Z,1.63
2019-03-11T05:07:20.307Z,1.13
2019-03-11T05:09:51.089Z,1.63
2019-03-11T05:12:21.866Z,1.60
2019-03-11T05:14:52.618Z,1.50
2019-03-11T05:17:23.395Z,1.47
2019-03-11T05:19:54.229Z,1.50
2019-03-11T05:22:24.996Z,0.80
2019-03-11T05:24:55.869Z,1.03
2019-03-11T05:27:26.649Z,1.47
2019-03-11T05:29:57.431Z,1.90
2019-03-11T05:32:28.141Z,1.80
2019-03-11T05:34:59.145Z,1.87
2019-03-11T05:37:29.954Z,1.80
2019-03-11T05:40:00.949Z,1.90
2019-03-11T05:42:31.812Z,1.77
2019-03-11T05:45:02.603Z,1.50
2019-03-11T05:47:34.344Z,2.13
2019-03-11T05:50:06.032Z,2.07
2019-03-11T05:52:36.899Z,2.37
2019-03-11T05:55:08.122Z,2.13
2019-03-11T05:57:38.842Z,2.00
2019-03-11T06:00:14.027Z,2.20
2019-03-11T06:02:51.552Z,1.80
2019-03-11T06:05:22.462Z,2.20
2019-03-11T06:07:53.288Z,2.07
2019-03-11T06:10:24.041Z,1.97
2019-03-11T06:12:55.096Z,1.47
2019-03-11T06:15:25.899Z,1.77
2019-03-11T06:17:56.707Z,1.50
2019-03-11T06:20:37.310Z,2.23
2019-03-11T06:23:09.463Z,2.03
2019-03-11T06:25:40.373Z,1.60
2019-03-11T06:28:11.277Z,2.00
2019-03-11T06:30:42.150Z,1.23
2019-03-11T06:33:12.994Z,1.87
2019-03-11T06:35:43.807Z,1.87
2019-03-11T06:38:16.178Z,1.87
2019-03-11T06:40:48.550Z,1.57
2019-03-11T06:43:19.294Z,1.80
2019-03-11T06:45:50.231Z,1.90
2019-03-11T06:48:21.079Z,1.60
2019-03-11T06:50:51.950Z,1.97
2019-03-11T06:53:22.750Z,2.07
2019-03-11T06:56:05.443Z,1.90
2019-03-11T06:58:36.330Z,2.23
2019-03-11T07:01:07.476Z,1.83
2019-03-11T07:03:38.244Z,0.73
2019-03-11T07:06:09.225Z,2.20
2019-03-11T07:08:41.483Z,1.90
2019-03-11T07:11:12.219Z,1.70
2019-03-11T07:13:43.394Z,1.67
2019-03-11T07:16:14.412Z,1.83
2019-03-11T07:18:45.391Z,2.00
2019-03-11T07:21:16.371Z,1.97
2019-03-11T07:23:47.395Z,1.90
2019-03-11T07:26:18.340Z,1.97
2019-03-11T07:28:50.507Z,1.90
2019-03-11T07:31:21.400Z,2.00
2019-03-11T07:33:52.522Z,1.80
2019-03-11T07:36:23.394Z,1.73
2019-03-11T07:38:54.570Z,2.37
2019-03-11T07:41:25.294Z,1.93
2019-03-11T07:43:56.085Z,2.57
2019-03-11T07:46:26.944Z,2.23
2019-03-11T07:48:57.753Z,1.80
2019-03-11T07:51:28.645Z,2.30
2019-03-11T07:53:59.663Z,2.50
2019-03-11T07:56:30.359Z,1.90
2019-03-11T07:59:02.260Z,2.00
2019-03-11T08:01:33.142Z,1.60
2019-03-11T08:04:04.159Z,1.37
2019-03-11T08:06:34.960Z,2.03
2019-03-11T08:09:07.891Z,1.87
2019-03-11T08:11:40.110Z,2.17
2019-03-11T08:14:10.979Z,1.60
2019-03-11T08:16:43.484Z,1.93
2019-03-11T08:19:15.390Z,2.10
2019-03-11T08:21:46.183Z,2.87
2019-03-11T08:24:18.082Z,2.20
2019-03-11T08:26:49.073Z,2.17
2019-03-11T08:29:19.858Z,1.17
2019-03-11T08:31:50.734Z,1.80
2019-03-11T08:34:21.699Z,1.40
2019-03-11T08:36:52.607Z,1.90
2019-03-11T08:39:23.331Z,1.40
2019-03-11T08:41:54.172Z,2.20
2019-03-11T08:44:24.918Z,2.13
2019-03-11T08:46:55.742Z,1.13
2019-03-11T08:49:26.478Z,1.40
2019-03-11T08:51:57.360Z,1.40
2019-03-11T08:54:28.038Z,1.60
2019-03-11T08:56:58.707Z,2.47
2019-03-11T08:59:29.472Z,2.40
2019-03-11T09:02:00.282Z,2.37
2019-03-11T09:04:31.116Z,2.53
2019-03-11T09:07:01.854Z,2.83
2019-03-11T09:09:32.643Z,2.37
2019-03-11T09:12:03.411Z,2.90
2019-03-11T09:14:34.130Z,2.77
2019-03-11T09:17:05.680Z,2.23
2019-03-11T09:19:36.750Z,2.20
2019-03-11T09:22:07.563Z,2.40
2019-03-11T09:24:38.324Z,2.40
2019-03-11T09:27:09.132Z,1.60
2019-03-11T09:29:39.810Z,3.43
2019-03-11T09:32:10.683Z,2.93
2019-03-11T09:34:42.346Z,2.83
2019-03-11T09:37:13.031Z,2.17
2019-03-11T09:39:44.006Z,2.53
2019-03-11T09:42:14.807Z,2.30
2019-03-11T09:44:45.538Z,2.77
2019-03-11T09:47:18.043Z,2.30
2019-03-11T09:49:49.005Z,2.63
2019-03-11T09:52:19.854Z,1.63
2019-03-11T09:54:52.294Z,1.67
2019-03-11T09:57:22.974Z,2.03
2019-03-11T09:59:53.773Z,2.93
2019-03-11T10:02:24.592Z,3.00
2019-03-11T10:04:55.440Z,3.07
2019-03-11T10:07:26.189Z,2.57
2019-03-11T10:09:57.002Z,1.93
2019-03-11T10:12:30.316Z,2.77
2019-03-11T10:15:01.366Z,2.57
2019-03-11T10:17:34.017Z,1.70
2019-03-11T10:20:05.678Z,2.87
2019-03-11T10:22:36.818Z,2.60
2019-03-11T10:25:08.250Z,1.80
2019-03-11T10:27:39.296Z,2.43
2019-03-11T10:30:13.319Z,2.17
2019-03-11T10:32:44.381Z,2.87
2019-03-11T10:35:31.546Z,2.40
2019-03-11T10:37:49.340Z,2.70
2019-03-11T10:40:21.669Z,3.03
2019-03-11T10:42:52.685Z,3.13
2019-03-11T10:45:30.992Z,3.47
2019-03-11T10:47:55.959Z,3.00
2019-03-11T10:50:27.349Z,3.13
2019-03-11T10:52:58.196Z,2.70
2019-03-11T10:55:28.866Z,2.50
2019-03-11T10:58:02.514Z,3.17
2019-03-11T11:00:33.473Z,1.80
2019-03-11T11:03:04.351Z,1.90
2019-03-11T11:05:35.127Z,2.10
2019-03-11T11:08:05.902Z,1.57
2019-03-11T11:10:36.766Z,1.97
2019-03-11T11:13:07.529Z,3.13
2019-03-11T11:15:38.410Z,1.30
2019-03-11T11:18:09.203Z,1.50
2019-03-11T11:20:40.183Z,1.30
2019-03-11T11:23:11.074Z,1.30
2019-03-11T11:25:41.889Z,1.33
2019-03-11T11:28:12.690Z,1.60
2019-03-11T11:30:43.486Z,1.53
2019-03-11T11:33:15.271Z,1.87
2019-03-11T11:35:47.815Z,1.80
2019-03-11T11:38:18.606Z,1.97
2019-03-11T11:40:49.434Z,1.50
2019-03-11T11:43:20.316Z,1.50
2019-03-11T11:45:52.122Z,1.90
2019-03-11T11:48:22.951Z,1.40
2019-03-11T11:50:53.609Z,1.77
2019-03-11T11:53:25.330Z,2.57
2019-03-11T11:55:57.933Z,1.90
2019-03-11T11:58:28.573Z,1.80
2019-03-11T12:00:59.355Z,2.17
2019-03-11T12:03:31.226Z,2.20
2019-03-11T12:06:01.973Z,1.47
2019-03-11T12:08:32.696Z,2.37
2019-03-11T12:11:03.685Z,1.67
2019-03-11T12:13:34.574Z,2.40
2019-03-11T12:16:06.141Z,1.90
2019-03-11T12:18:36.943Z,1.43
2019-03-11T12:21:08.104Z,2.47
2019-03-11T12:23:46.374Z,2.00
2019-03-11T12:26:11.903Z,1.93
2019-03-11T12:28:42.799Z,1.70
2019-03-11T12:31:13.601Z,1.37
2019-03-11T12:33:45.195Z,1.90
2019-03-11T12:36:17.223Z,1.90
2019-03-11T12:38:48.028Z,1.20
2019-03-11T12:41:18.810Z,1.30
2019-03-11T12:43:49.517Z,1.10
2019-03-11T12:46:20.261Z,1.47
2019-03-11T12:48:51.135Z,1.60
2019-03-11T12:51:22.014Z,1.60
2019-03-11T12:53:52.795Z,1.20
2019-03-11T12:56:23.603Z,1.60
2019-03-11T12:58:54.378Z,1.30
2019-03-11T13:01:25.158Z,1.47
2019-03-11T13:03:55.965Z,1.67
2019-03-11T13:06:28.523Z,1.50
2019-03-11T13:09:04.957Z,1.83
2019-03-11T13:11:44.086Z,1.80
2019-03-11T13:14:15.219Z,2.13
2019-03-11T13:16:46.071Z,1.70
2019-03-11T13:19:16.975Z,1.30
2019-03-11T13:21:47.914Z,2.27
2019-03-11T13:24:18.810Z,2.13
2019-03-11T13:26:49.581Z,1.23
2019-03-11T13:29:20.518Z,1.73
2019-03-11T13:31:51.531Z,1.73
2019-03-11T13:34:22.603Z,1.97
2019-03-11T13:36:53.706Z,1.40
2019-03-11T13:39:24.692Z,1.87
2019-03-11T13:41:55.548Z,2.47
2019-03-11T13:44:26.429Z,1.20
2019-03-11T13:46:57.260Z,1.40
2019-03-11T13:49:28.090Z,1.70
2019-03-11T13:51:58.903Z,1.97
2019-03-11T13:54:29.873Z,1.23
2019-03-11T13:57:00.805Z,1.73
2019-03-11T13:59:31.606Z,1.30
2019-03-11T14:02:02.481Z,1.50
2019-03-11T14:04:33.126Z,1.50
2019-03-11T14:07:04.074Z,1.73
2019-03-11T14:09:35.901Z,1.63
2019-03-11T14:12:06.794Z,1.63
2019-03-11T14:14:37.786Z,1.23
2019-03-11T14:17:08.555Z,1.50
2019-03-11T14:19:39.430Z,1.23
2019-03-11T14:22:10.258Z,1.50
2019-03-11T14:24:42.113Z,1.50
2019-03-11T14:27:13.333Z,1.57
2019-03-11T14:29:44.155Z,1.87
2019-03-11T14:32:18.049Z,1.47
2019-03-11T14:34:48.926Z,1.53
2019-03-11T14:37:19.887Z,1.83
2019-03-11T14:39:50.606Z,1.60
2019-03-11T14:42:21.427Z,1.60
2019-03-11T14:44:53.126Z,1.90
2019-03-11T14:47:23.895Z,1.43
2019-03-11T14:49:54.922Z,1.60
2019-03-11T14:52:25.862Z,1.70
2019-03-11T14:54:57.330Z,2.10
2019-03-11T14:57:28.112Z,2.10
2019-03-11T14:59:58.927Z,2.00
2019-03-11T15:02:29.731Z,1.50
2019-03-11T15:05:00.591Z,1.97
2019-03-11T15:07:32.253Z,2.17
2019-03-11T15:10:03.141Z,2.47
2019-03-11T15:12:33.849Z,2.50
2019-03-11T15:15:04.857Z,2.47
2019-03-11T15:17:35.734Z,1.73
2019-03-11T15:20:07.023Z,1.93
2019-03-11T15:22:37.820Z,1.60
2019-03-11T15:25:10.151Z,1.63
2019-03-11T15:27:41.230Z,2.07
2019-03-11T15:30:14.338Z,2.20
2019-03-11T15:32:45.360Z,2.03
2019-03-11T15:35:16.404Z,2.07
2019-03-11T15:37:47.259Z,1.30
2019-03-11T15:40:18.084Z,2.13
2019-03-11T15:42:50.001Z,1.63
2019-03-11T15:45:22.072Z,2.40
2019-03-11T15:47:54.400Z,1.60
2019-03-11T15:50:26.630Z,1.83
2019-03-11T15:52:57.635Z,1.60
2019-03-11T15:55:28.478Z,2.00
2019-03-11T15:57:59.495Z,1.80
2019-03-11T16:00:48.974Z,1.63
2019-03-11T16:03:20.180Z,2.50
2019-03-11T16:05:53.580Z,2.10
2019-03-11T16:08:27.611Z,1.90
2019-03-11T16:10:58.512Z,1.63
2019-03-11T16:13:31.881Z,2.13
2019-03-11T16:16:09.339Z,2.27
2019-03-11T16:18:42.062Z,2.23
2019-03-11T16:21:13.066Z,2.07
2019-03-11T16:23:45.548Z,1.73
2019-03-11T16:26:18.749Z,1.97
2019-03-11T16:28:53.258Z,2.00
2019-03-11T16:31:25.587Z,1.97
2019-03-11T16:33:56.725Z,1.60
2019-03-11T16:36:28.909Z,1.87
2019-03-11T16:39:00.128Z,1.67
2019-03-11T16:41:31.017Z,1.30
2019-03-11T16:44:03.490Z,1.80
2019-03-11T16:46:35.031Z,1.83
2019-03-11T16:49:06.798Z,1.90
2019-03-11T16:51:37.936Z,1.53
2019-03-11T16:54:09.216Z,2.00
2019-03-11T16:56:40.091Z,2.20
2019-03-11T16:59:11.505Z,2.30
2019-03-11T17:01:45.406Z,1.40
2019-03-11T17:04:18.392Z,1.73
2019-03-11T17:06:49.717Z,1.90
2019-03-11T17:09:20.441Z,1.53
2019-03-11T17:11:52.330Z,1.97
2019-03-11T17:14:23.349Z,1.37
2019-03-11T17:16:58.381Z,1.30
2019-03-11T17:19:29.988Z,1.47
2019-03-11T17:22:00.804Z,2.17
2019-03-11T17:24:31.595Z,1.73
2019-03-11T17:27:02.521Z,1.80
2019-03-11T17:29:33.280Z,1.50
2019-03-11T17:32:04.033Z,1.97
2019-03-11T17:34:34.730Z,2.10
2019-03-11T17:37:05.481Z,2.00
2019-03-11T17:39:36.258Z,1.90
2019-03-11T17:42:07.099Z,2.03
2019-03-11T17:44:38.163Z,1.83
2019-03-11T17:47:08.948Z,2.30
2019-03-11T17:49:39.797Z,2.30
2019-03-11T17:52:10.558Z,1.70
2019-03-11T17:54:42.955Z,1.70
2019-03-11T17:57:13.759Z,1.90
2019-03-11T17:59:44.591Z,1.53
2019-03-11T18:02:15.444Z,2.00
2019-03-11T18:04:46.425Z,2.03
2019-03-11T18:07:17.234Z,2.37
2019-03-11T18:09:48.203Z,2.30
2019-03-11T18:12:19.274Z,1.57
2019-03-11T18:14:50.373Z,2.90
2019-03-11T18:17:21.323Z,2.53
2019-03-11T18:19:53.717Z,2.33
2019-03-11T18:22:24.568Z,1.67
2019-03-11T18:24:55.422Z,1.67
2019-03-11T18:27:27.918Z,2.10
2019-03-11T18:29:58.726Z,2.40
2019-03-11T18:32:29.659Z,1.80
2019-03-11T18:35:00.522Z,2.00
2019-03-11T18:37:31.391Z,1.80
2019-03-11T18:40:02.119Z,1.63
2019-03-11T18:42:34.315Z,2.33
2019-03-11T18:45:05.370Z,1.90
2019-03-11T18:47:36.228Z,2.27
2019-03-11T18:50:11.577Z,2.47
2019-03-11T18:52:43.016Z,2.40
2019-03-11T18:55:14.640Z,2.80
2019-03-11T18:57:45.827Z,1.93
2019-03-11T19:00:17.944Z,1.93
2019-03-11T19:02:49.052Z,1.90
2019-03-11T19:05:21.515Z,2.30
2019-03-11T19:07:54.921Z,1.97
2019-03-11T19:10:25.180Z,3.30
2019-03-11T19:12:55.980Z,2.23
2019-03-11T19:15:26.903Z,1.73
2019-03-11T19:17:58.146Z,2.40
2019-03-11T19:20:28.960Z,2.73
2019-03-11T19:22:59.821Z,2.33
2019-03-11T19:25:30.824Z,2.30
2019-03-11T19:28:01.706Z,2.70
2019-03-11T19:30:32.621Z,1.80
2019-03-11T19:33:03.865Z,2.00
2019-03-11T19:35:35.312Z,2.30
2019-03-11T19:38:06.203Z,2.00
2019-03-11T19:40:37.076Z,2.53
2019-03-11T19:43:09.706Z,2.60
2019-03-11T19:45:42.400Z,2.03
2019-03-11T19:48:13.340Z,2.60
2019-03-11T19:50:44.255Z,2.67
2019-03-11T19:56:51.267Z,2.60
2019-03-11T19:59:43.696Z,2.77
2019-03-11T20:02:19.486Z,2.47
2019-03-11T20:08:26.781Z,2.70
2019-03-11T20:11:00.838Z,2.40
2019-03-11T20:13:36.445Z,2.67
2019-03-11T20:18:48.575Z,2.73
2019-03-11T20:21:24.086Z,2.60
2019-03-11T20:23:59.663Z,2.63
2019-03-11T20:26:35.198Z,2.53
2019-03-11T20:29:10.445Z,3.23
2019-03-11T20:31:39.265Z,3.03
2019-03-11T20:34:11.838Z,2.80
2019-03-11T20:36:42.975Z,3.60
2019-03-11T20:39:47.160Z,2.57
2019-03-11T20:42:16.277Z,2.70
2019-03-11T20:45:02.892Z,3.10
2019-03-11T20:47:49.755Z,2.53
2019-03-11T20:50:20.982Z,2.90
2019-03-11T20:52:51.931Z,2.33
2019-03-11T20:55:22.903Z,2.53
2019-03-11T20:57:53.819Z,3.47
2019-03-11T21:00:27.843Z,2.13
2019-03-11T21:03:00.082Z,3.00
2019-03-11T21:05:31.551Z,2.67
2019-03-11T21:08:02.388Z,3.67
2019-03-11T21:10:37.424Z,3.27
2019-03-11T21:13:10.079Z,2.67
2019-03-11T21:15:41.923Z,2.43
2019-03-11T21:18:12.752Z,2.63
2019-03-11T21:20:43.627Z,3.30
2019-03-11T21:23:14.414Z,2.93
2019-03-11T21:25:45.396Z,3.30
2019-03-11T21:28:16.373Z,2.73
2019-03-11T21:30:47.357Z,3.40
2019-03-11T21:33:18.326Z,3.50
2019-03-11T21:35:50.201Z,2.83
2019-03-11T21:38:21.037Z,2.93
2019-03-11T21:40:51.995Z,3.47
2019-03-11T21:43:23.020Z,3.30
2019-03-11T21:45:55.280Z,4.70
2019-03-11T21:48:26.270Z,3.60
2019-03-11T21:50:57.163Z,3.77
2019-03-11T21:53:31.990Z,3.63
2019-03-11T21:56:10.410Z,4.40
2019-03-11T22:01:57.702Z,3.13
2019-03-11T22:04:44.166Z,4.10
2019-03-11T22:07:08.403Z,3.23
2019-03-11T22:09:39.499Z,3.20
2019-03-11T22:12:10.855Z,3.23
2019-03-11T22:14:42.908Z,3.53
2019-03-11T22:17:16.577Z,3.27
2019-03-11T22:19:47.373Z,4.80
2019-03-11T22:22:18.383Z,5.17
2019-03-11T22:24:49.543Z,5.63
2019-03-11T22:27:20.333Z,5.90
2019-03-11T22:29:51.182Z,4.27
2019-03-11T22:32:22.123Z,4.30
2019-03-11T22:34:53.216Z,4.77
2019-03-11T22:37:23.975Z,5.13
2019-03-11T22:39:54.767Z,5.13
2019-03-11T22:42:25.491Z,5.00
2019-03-11T22:44:56.262Z,4.23
2019-03-11T22:47:27.020Z,3.80
2019-03-11T22:49:57.774Z,4.13
2019-03-11T22:52:30.323Z,3.90
2019-03-11T22:55:01.063Z,3.83
2019-03-11T22:57:32.909Z,3.90
2019-03-11T23:00:03.867Z,3.87
2019-03-11T23:02:40.345Z,4.00
2019-03-11T23:05:08.959Z,3.77
2019-03-11T23:07:39.683Z,3.57
2019-03-11T23:10:11.595Z,3.53
2019-03-11T23:12:42.472Z,3.40
2019-03-11T23:15:13.373Z,3.33
2019-03-11T23:17:44.243Z,4.23
2019-03-11T23:20:15.102Z,3.17
2019-03-11T23:22:45.771Z,3.17
2019-03-11T23:25:16.523Z,3.37
2019-03-11T23:27:47.322Z,3.43
2019-03-11T23:30:18.179Z,3.60
2019-03-11T23:32:48.938Z,3.77
2019-03-11T23:35:19.907Z,3.30
2019-03-11T23:37:50.803Z,3.50
2019-03-11T23:40:21.743Z,4.03
2019-03-11T23:42:52.482Z,3.63
2019-03-11T23:45:24.256Z,3.60
2019-03-11T23:47:54.924Z,3.73
2019-03-11T23:50:25.630Z,4.23
2019-03-11T23:52:56.385Z,3.83
2019-03-11T23:55:27.118Z,3.77
2019-03-11T23:57:57.787Z,3.93
